createdAt,value
2022-08-25T00:01:23.014Z,22.80
2022-08-25T00:03:54.144Z,22.90
2022-08-25T00:06:22.118Z,22.90
2022-08-25T00:08:50.456Z,22.90
2022-08-25T00:11:19.480Z,22.90
2022-08-25T00:13:49.932Z,22.80
2022-08-25T00:16:18.906Z,22.70
2022-08-25T00:18:47.909Z,22.70
2022-08-25T00:21:16.234Z,22.60
2022-08-25T00:23:44.603Z,22.50
2022-08-25T00:26:12.729Z,22.60
2022-08-25T00:28:40.587Z,22.60
2022-08-25T00:31:11.989Z,22.50
2022-08-25T00:33:39.955Z,22.50
2022-08-25T00:36:07.831Z,22.50
2022-08-25T00:38:36.404Z,22.50
2022-08-25T00:41:07.832Z,22.60
2022-08-25T00:43:36.608Z,22.60
2022-08-25T00:46:04.803Z,22.60
2022-08-25T00:48:34.057Z,22.60
2022-08-25T00:51:02.831Z,22.50
2022-08-25T00:53:30.782Z,22.40
2022-08-25T00:55:59.770Z,22.40
2022-08-25T00:58:28.285Z,22.40
2022-08-25T01:00:57.700Z,22.30
2022-08-25T01:03:33.119Z,22.30
2022-08-25T01:06:05.970Z,22.30
2022-08-25T01:08:34.248Z,22.20
2022-08-25T01:11:05.635Z,22.20
2022-08-25T01:13:36.606Z,22.20
2022-08-25T01:16:04.714Z,22.20
2022-08-25T01:18:43.484Z,22.20
2022-08-25T01:21:13.024Z,22.20
2022-08-25T01:23:41.184Z,22.30
2022-08-25T01:26:10.490Z,22.40
2022-08-25T01:28:38.762Z,22.50
2022-08-25T01:31:23.825Z,22.60
2022-08-25T01:33:52.242Z,22.60
2022-08-25T01:36:21.975Z,22.60
2022-08-25T01:38:50.209Z,22.60
2022-08-25T01:41:18.395Z,22.50
2022-08-25T01:43:46.498Z,22.50
2022-08-25T01:46:14.395Z,22.50
2022-08-25T01:48:42.168Z,22.70
2022-08-25T01:51:09.878Z,22.70
2022-08-25T01:53:38.944Z,22.80
2022-08-25T01:56:11.566Z,22.90
2022-08-25T01:58:40.937Z,23.00
2022-08-25T02:01:09.990Z,23.10
2022-08-25T02:03:38.779Z,23.10
2022-08-25T02:06:12.343Z,23.10
2022-08-25T02:08:42.375Z,23.10
2022-08-25T02:11:12.319Z,23.20
2022-08-25T02:13:40.406Z,23.00
2022-08-25T02:16:09.075Z,23.00
2022-08-25T02:18:36.812Z,23.00
2022-08-25T02:21:04.730Z,23.10
2022-08-25T02:23:32.523Z,23.00
2022-08-25T02:26:02.062Z,22.90
2022-08-25T02:28:29.766Z,22.70
2022-08-25T02:31:01.649Z,22.70
2022-08-25T02:33:29.594Z,22.70
2022-08-25T02:35:58.926Z,22.60
2022-08-25T02:38:27.862Z,22.60
2022-08-25T02:40:55.591Z,22.80
2022-08-25T02:43:24.862Z,22.90
2022-08-25T02:45:52.690Z,22.90
2022-08-25T02:48:20.743Z,22.70
2022-08-25T02:50:48.507Z,22.60
2022-08-25T02:53:16.211Z,22.50
2022-08-25T02:55:43.914Z,22.30
2022-08-25T02:58:11.655Z,22.30
2022-08-25T03:00:40.697Z,22.40
2022-08-25T03:03:10.993Z,22.40
2022-08-25T03:05:39.298Z,22.30
2022-08-25T03:08:07.146Z,22.20
2022-08-25T03:10:35.362Z,22.20
2022-08-25T03:13:03.076Z,22.10
2022-08-25T03:15:30.783Z,22.10
2022-08-25T03:18:01.173Z,22.10
2022-08-25T03:20:29.667Z,22.20
2022-08-25T03:22:57.365Z,22.20
2022-08-25T03:25:42.720Z,22.40
2022-08-25T03:28:11.027Z,22.50
2022-08-25T03:30:39.432Z,22.30
2022-08-25T03:33:08.699Z,22.20
2022-08-25T03:35:36.453Z,22.20
2022-08-25T03:38:04.445Z,22.40
2022-08-25T03:40:33.100Z,22.50
2022-08-25T03:43:00.945Z,22.60
2022-08-25T03:45:28.820Z,22.40
2022-08-25T03:47:56.714Z,22.20
2022-08-25T03:50:25.760Z,22.20
2022-08-25T03:52:54.434Z,22.30
2022-08-25T03:55:23.294Z,22.40
2022-08-25T03:57:51.347Z,22.40
2022-08-25T04:00:19.815Z,22.50
2022-08-25T04:02:47.869Z,22.50
2022-08-25T04:05:15.952Z,22.50
2022-08-25T04:07:45.095Z,22.40
2022-08-25T04:10:13.641Z,22.20
2022-08-25T04:12:41.734Z,22.10
2022-08-25T04:15:10.593Z,22.00
2022-08-25T04:17:38.819Z,21.90
2022-08-25T04:20:08.022Z,21.80
2022-08-25T04:22:36.717Z,22.00
2022-08-25T04:25:07.136Z,21.80
2022-08-25T04:27:34.857Z,21.70
2022-08-25T04:30:02.987Z,21.60
2022-08-25T04:32:32.168Z,21.40
2022-08-25T04:34:59.941Z,21.30
2022-08-25T04:37:27.729Z,21.20
2022-08-25T04:39:55.577Z,21.20
2022-08-25T04:42:26.315Z,21.30
2022-08-25T04:44:54.405Z,21.30
2022-08-25T04:47:22.456Z,21.30
2022-08-25T04:49:50.790Z,21.30
2022-08-25T04:52:18.494Z,21.30
2022-08-25T04:54:46.396Z,21.30
2022-08-25T04:57:14.308Z,21.50
2022-08-25T04:59:43.399Z,21.50
2022-08-25T05:02:11.113Z,21.50
2022-08-25T05:04:38.863Z,21.50
2022-08-25T05:07:06.961Z,21.40
2022-08-25T05:09:34.852Z,21.20
2022-08-25T05:12:03.174Z,21.20
2022-08-25T05:14:31.199Z,21.10
2022-08-25T05:17:01.007Z,21.00
2022-08-25T05:19:28.721Z,21.00
2022-08-25T05:21:57.761Z,21.00
2022-08-25T05:24:26.323Z,21.00
2022-08-25T05:26:54.013Z,21.00
2022-08-25T05:29:21.791Z,21.00
2022-08-25T05:31:50.857Z,21.00
2022-08-25T05:34:20.641Z,21.10
2022-08-25T05:36:48.633Z,21.10
2022-08-25T05:39:16.516Z,21.20
2022-08-25T05:41:44.356Z,21.20
2022-08-25T05:44:12.624Z,21.30
2022-08-25T05:46:40.393Z,21.30
2022-08-25T05:49:08.127Z,21.40
2022-08-25T05:51:37.199Z,21.50
2022-08-25T05:54:05.633Z,21.50
2022-08-25T05:56:33.326Z,21.60
2022-08-25T05:59:01.914Z,21.70
2022-08-25T06:01:49.234Z,21.80
2022-08-25T06:04:17.679Z,21.80
2022-08-25T06:06:48.137Z,21.90
2022-08-25T06:09:15.919Z,22.00
2022-08-25T06:11:43.724Z,22.00
2022-08-25T06:14:11.992Z,22.10
2022-08-25T06:16:40.276Z,22.20
2022-08-25T06:19:08.884Z,22.20
2022-08-25T06:21:39.028Z,22.30
2022-08-25T06:24:12.091Z,22.40
2022-08-25T06:26:43.170Z,22.40
2022-08-25T06:29:10.905Z,22.50
2022-08-25T06:31:38.746Z,22.70
2022-08-25T06:34:07.010Z,22.80
2022-08-25T06:36:34.797Z,22.90
2022-08-25T06:39:02.963Z,23.00
2022-08-25T06:41:36.548Z,23.10
2022-08-25T06:44:05.665Z,23.20
2022-08-25T06:46:35.897Z,23.20
2022-08-25T06:49:04.954Z,23.30
2022-08-25T06:51:32.669Z,23.40
2022-08-25T06:54:01.043Z,23.40
2022-08-25T06:56:28.970Z,23.50
2022-08-25T06:58:58.083Z,23.60
2022-08-25T07:01:27.094Z,23.60
2022-08-25T07:03:57.317Z,23.70
2022-08-25T07:06:26.028Z,23.90
2022-08-25T07:08:53.939Z,23.90
2022-08-25T07:11:21.883Z,24.00
2022-08-25T07:13:50.359Z,24.00
2022-08-25T07:16:20.288Z,24.10
2022-08-25T07:18:48.883Z,24.10
2022-08-25T07:21:17.494Z,24.30
2022-08-25T07:23:47.455Z,24.30
2022-08-25T07:26:36.269Z,24.40
2022-08-25T07:29:04.696Z,24.50
2022-08-25T07:31:35.066Z,24.60
2022-08-25T07:34:20.272Z,24.50
2022-08-25T07:36:48.098Z,24.60
2022-08-25T07:39:16.593Z,24.80
2022-08-25T07:41:44.332Z,24.80
2022-08-25T07:44:13.639Z,24.80
2022-08-25T07:46:43.168Z,24.90
2022-08-25T07:49:16.449Z,25.10
2022-08-25T07:52:05.548Z,25.20
2022-08-25T07:54:34.148Z,25.30
2022-08-25T07:57:02.394Z,25.40
2022-08-25T07:59:30.138Z,25.60
2022-08-25T08:01:59.845Z,25.60
2022-08-25T08:04:27.628Z,25.70
2022-08-25T08:06:56.194Z,26.00
2022-08-25T08:09:23.920Z,26.20
2022-08-25T08:11:54.031Z,26.30
2022-08-25T08:14:22.434Z,26.30
2022-08-25T08:16:50.494Z,26.40
2022-08-25T08:19:23.046Z,26.60
2022-08-25T08:21:52.551Z,26.90
2022-08-25T08:24:44.003Z,27.20
2022-08-25T08:27:10.557Z,27.20
2022-08-25T08:29:38.670Z,27.40
2022-08-25T08:32:07.412Z,27.60
2022-08-25T08:34:36.614Z,27.70
2022-08-25T08:37:04.645Z,27.80
2022-08-25T08:39:32.763Z,27.80
2022-08-25T08:42:22.104Z,27.80
2022-08-25T08:45:02.687Z,28.10
2022-08-25T08:47:38.304Z,28.10
2022-08-25T08:50:22.464Z,28.10
2022-08-25T08:52:55.505Z,28.10
2022-08-25T08:55:27.470Z,28.50
2022-08-25T08:57:58.659Z,28.60
2022-08-25T09:00:27.192Z,28.60
2022-08-25T09:02:58.527Z,28.90
2022-08-25T09:05:29.147Z,29.00
2022-08-25T09:07:58.256Z,29.10
2022-08-25T09:10:27.823Z,29.30
2022-08-25T09:12:59.747Z,29.30
2022-08-25T09:15:48.801Z,29.30
2022-08-25T09:18:19.216Z,29.10
2022-08-25T09:21:01.510Z,29.20
2022-08-25T09:23:34.611Z,29.40
2022-08-25T09:26:06.145Z,29.70
2022-08-25T09:28:39.746Z,29.70
2022-08-25T09:31:14.713Z,29.80
2022-08-25T09:33:42.498Z,30.30
2022-08-25T09:36:11.842Z,30.50
2022-08-25T09:38:40.059Z,30.60
2022-08-25T09:41:08.411Z,30.30
2022-08-25T09:43:37.055Z,30.70
2022-08-25T09:46:11.240Z,30.70
2022-08-25T09:48:44.527Z,30.60
2022-08-25T09:51:22.140Z,30.90
2022-08-25T09:53:52.873Z,30.80
2022-08-25T09:56:22.291Z,31.00
2022-08-25T09:58:50.495Z,31.10
2022-08-25T10:01:19.030Z,31.00
2022-08-25T10:03:58.166Z,30.80
2022-08-25T10:06:28.232Z,30.90
2022-08-25T10:08:59.611Z,31.30
2022-08-25T10:11:34.232Z,31.20
2022-08-25T10:14:03.142Z,31.20
2022-08-25T10:16:36.078Z,31.40
2022-08-25T10:19:06.683Z,31.30
2022-08-25T10:21:37.797Z,31.40
2022-08-25T10:24:06.818Z,31.40
2022-08-25T10:26:37.792Z,31.50
2022-08-25T10:29:11.817Z,31.60
2022-08-25T10:31:44.992Z,31.40
2022-08-25T10:34:20.037Z,31.40
2022-08-25T10:36:56.118Z,31.20
2022-08-25T10:39:36.478Z,31.30
2022-08-25T10:42:10.406Z,31.10
2022-08-25T10:45:04.039Z,31.30
2022-08-25T10:47:50.343Z,31.30
2022-08-25T10:50:23.530Z,31.40
2022-08-25T10:52:59.411Z,31.30
2022-08-25T10:55:30.635Z,30.80
2022-08-25T10:58:03.333Z,30.70
2022-08-25T11:00:35.148Z,30.60
2022-08-25T11:03:12.545Z,30.60
2022-08-25T11:05:42.332Z,31.00
2022-08-25T11:08:14.839Z,31.20
2022-08-25T11:10:45.597Z,31.60
2022-08-25T11:13:22.367Z,32.00
2022-08-25T11:16:15.574Z,32.40
2022-08-25T11:18:51.054Z,32.70
2022-08-25T11:21:22.179Z,32.10
2022-08-25T11:23:54.812Z,31.90
2022-08-25T11:26:31.884Z,32.00
2022-08-25T11:29:04.123Z,31.90
2022-08-25T11:31:36.354Z,31.70
2022-08-25T11:34:04.089Z,31.60
2022-08-25T11:36:35.392Z,31.40
2022-08-25T11:39:11.178Z,31.30
2022-08-25T11:41:42.097Z,31.10
2022-08-25T11:44:16.447Z,31.10
2022-08-25T11:46:57.223Z,30.80
2022-08-25T11:49:35.709Z,30.70
2022-08-25T11:52:03.635Z,30.90
2022-08-25T11:54:36.463Z,30.80
2022-08-25T11:57:06.468Z,30.50
2022-08-25T11:59:53.160Z,30.20
2022-08-25T12:02:29.684Z,29.90
2022-08-25T12:04:57.902Z,29.80
2022-08-25T12:07:28.070Z,30.20
2022-08-25T12:10:10.749Z,30.30
2022-08-25T12:12:56.138Z,30.30
2022-08-25T12:15:25.830Z,30.40
2022-08-25T12:18:11.305Z,30.40
2022-08-25T12:20:58.137Z,30.60
2022-08-25T12:23:28.735Z,30.60
2022-08-25T12:25:57.994Z,30.70
2022-08-25T12:28:37.157Z,30.70
2022-08-25T12:31:10.133Z,30.50
2022-08-25T12:33:44.108Z,30.30
2022-08-25T12:36:12.508Z,30.10
2022-08-25T12:38:45.439Z,30.00
2022-08-25T12:41:16.355Z,30.30
2022-08-25T12:43:46.447Z,31.00
2022-08-25T12:46:32.792Z,31.60
2022-08-25T12:49:01.550Z,32.00
2022-08-25T12:51:39.103Z,31.90
2022-08-25T12:54:16.105Z,32.30
2022-08-25T12:56:53.494Z,32.20
2022-08-25T12:59:23.554Z,31.90
2022-08-25T13:01:58.582Z,31.90
2022-08-25T13:04:36.132Z,32.60
2022-08-25T13:07:18.770Z,33.30
2022-08-25T13:10:00.735Z,34.10
2022-08-25T13:12:32.430Z,34.80
2022-08-25T13:15:01.466Z,34.90
2022-08-25T13:17:30.587Z,34.70
2022-08-25T13:20:19.259Z,34.00
2022-08-25T13:22:48.562Z,33.70
2022-08-25T13:25:17.876Z,33.50
2022-08-25T13:27:52.409Z,33.10
2022-08-25T13:30:32.459Z,32.70
2022-08-25T13:33:00.795Z,33.30
2022-08-25T13:35:36.638Z,33.50
2022-08-25T13:38:13.555Z,33.20
2022-08-25T13:40:43.113Z,33.20
2022-08-25T13:43:13.001Z,33.10
2022-08-25T13:45:44.011Z,33.20
2022-08-25T13:48:21.191Z,32.90
2022-08-25T13:50:52.919Z,32.50
2022-08-25T13:53:23.747Z,32.90
2022-08-25T13:55:53.244Z,32.90
2022-08-25T13:58:24.242Z,32.70
2022-08-25T14:01:03.804Z,33.00
2022-08-25T14:03:51.987Z,33.60
2022-08-25T14:06:23.529Z,34.00
2022-08-25T14:09:05.734Z,34.20
2022-08-25T14:11:35.406Z,34.20
2022-08-25T14:14:05.197Z,34.40
2022-08-25T14:16:37.244Z,34.60
2022-08-25T14:19:05.037Z,34.30
2022-08-25T14:21:34.595Z,34.60
2022-08-25T14:24:02.470Z,35.00
2022-08-25T14:26:30.512Z,35.20
2022-08-25T14:28:58.322Z,35.30
2022-08-25T14:31:28.135Z,35.90
2022-08-25T14:33:59.818Z,36.20
2022-08-25T14:36:29.591Z,36.80
2022-08-25T14:38:58.373Z,37.30
2022-08-25T14:41:26.481Z,37.10
2022-08-25T14:43:54.610Z,36.60
2022-08-25T14:46:23.490Z,36.60
2022-08-25T14:48:54.531Z,36.50
2022-08-25T14:51:25.749Z,36.30
2022-08-25T14:53:56.731Z,36.40
2022-08-25T14:56:24.588Z,36.50
2022-08-25T14:58:55.521Z,36.70
2022-08-25T15:01:29.148Z,36.40
2022-08-25T15:03:59.348Z,36.50
2022-08-25T15:06:29.371Z,36.60
2022-08-25T15:09:08.738Z,36.90
2022-08-25T15:11:36.830Z,36.50
2022-08-25T15:14:10.909Z,35.70
2022-08-25T15:16:41.169Z,35.20
2022-08-25T15:19:11.512Z,35.20
2022-08-25T15:21:40.580Z,35.20
2022-08-25T15:24:09.620Z,35.70
2022-08-25T15:26:40.863Z,36.00
2022-08-25T15:29:08.735Z,36.20
2022-08-25T15:31:37.160Z,35.90
2022-08-25T15:34:06.341Z,35.60
2022-08-25T15:36:34.604Z,35.60
2022-08-25T15:39:05.024Z,35.50
2022-08-25T15:41:33.199Z,35.50
2022-08-25T15:44:01.141Z,35.20
2022-08-25T15:46:30.136Z,35.20
2022-08-25T15:48:59.458Z,35.40
2022-08-25T15:51:27.406Z,35.70
2022-08-25T15:53:55.800Z,35.60
2022-08-25T15:56:26.740Z,35.70
2022-08-25T15:58:55.317Z,35.70
2022-08-25T16:01:24.811Z,35.60
2022-08-25T16:03:52.722Z,35.10
2022-08-25T16:06:20.578Z,34.70
2022-08-25T16:08:48.605Z,34.60
2022-08-25T16:11:18.544Z,34.30
2022-08-25T16:13:47.868Z,33.90
2022-08-25T16:16:16.290Z,33.60
2022-08-25T16:18:44.634Z,33.20
2022-08-25T16:21:13.172Z,32.70
2022-08-25T16:23:42.432Z,32.50
2022-08-25T16:26:12.887Z,32.20
2022-08-25T16:28:43.728Z,31.90
2022-08-25T16:31:14.022Z,31.80
2022-08-25T16:36:16.237Z,31.30
2022-08-25T16:38:48.837Z,31.10
2022-08-25T16:41:18.894Z,31.10
2022-08-25T16:43:47.031Z,30.90
2022-08-25T16:46:18.301Z,30.90
2022-08-25T16:48:46.042Z,30.90
2022-08-25T16:51:14.824Z,30.80
2022-08-25T16:53:59.911Z,30.70
2022-08-25T16:56:28.985Z,30.60
2022-08-25T16:58:57.492Z,30.50
2022-08-25T17:01:27.060Z,30.40
2022-08-25T17:03:56.639Z,30.30
2022-08-25T17:06:25.632Z,30.30
2022-08-25T17:08:53.413Z,30.20
2022-08-25T17:11:22.610Z,30.20
2022-08-25T17:13:51.983Z,30.10
2022-08-25T17:16:21.042Z,30.10
2022-08-25T17:18:50.202Z,30.00
2022-08-25T17:21:24.380Z,29.90
2022-08-25T17:23:53.251Z,29.90
2022-08-25T17:26:27.824Z,29.90
2022-08-25T17:28:56.808Z,29.80
2022-08-25T17:31:27.108Z,29.70
2022-08-25T17:33:57.311Z,29.70
2022-08-25T17:36:27.045Z,29.70
2022-08-25T17:38:55.405Z,29.70
2022-08-25T17:41:24.919Z,29.60
2022-08-25T17:43:52.711Z,29.50
2022-08-25T17:46:21.525Z,29.40
2022-08-25T17:48:49.331Z,29.40
2022-08-25T17:51:18.432Z,29.30
2022-08-25T17:53:46.822Z,29.30
2022-08-25T17:56:15.948Z,29.30
2022-08-25T17:58:44.483Z,29.30
2022-08-25T18:01:16.833Z,29.20
2022-08-25T18:03:44.690Z,29.20
2022-08-25T18:06:15.036Z,29.10
2022-08-25T18:08:51.727Z,28.90
2022-08-25T18:11:20.665Z,28.90
2022-08-25T18:13:50.420Z,28.70
2022-08-25T18:16:18.319Z,28.70
2022-08-25T18:18:46.068Z,28.60
2022-08-25T18:21:15.506Z,28.50
2022-08-25T18:23:43.636Z,28.50
2022-08-25T18:26:14.694Z,28.40
2022-08-25T18:28:43.925Z,28.30
2022-08-25T18:31:13.112Z,28.20
2022-08-25T18:33:44.547Z,28.10
2022-08-25T18:36:13.316Z,28.00
2022-08-25T18:39:07.204Z,27.90
2022-08-25T18:41:38.148Z,27.80
2022-08-25T18:44:06.456Z,27.70
2022-08-25T18:46:34.311Z,27.50
2022-08-25T18:49:02.088Z,27.40
2022-08-25T18:51:32.881Z,27.30
2022-08-25T18:54:01.468Z,27.20
2022-08-25T18:56:29.713Z,27.20
2022-08-25T18:58:59.405Z,27.20
2022-08-25T19:01:27.604Z,27.10
2022-08-25T19:03:56.462Z,27.00
2022-08-25T19:06:24.331Z,26.90
2022-08-25T19:08:52.532Z,26.90
2022-08-25T19:11:22.238Z,26.80
2022-08-25T19:13:50.415Z,26.70
2022-08-25T19:16:20.840Z,26.70
2022-08-25T19:18:49.030Z,26.60
2022-08-25T19:21:22.645Z,26.50
2022-08-25T19:23:50.769Z,26.50
2022-08-25T19:26:19.073Z,26.50
2022-08-25T19:28:49.024Z,26.40
2022-08-25T19:31:18.333Z,26.30
2022-08-25T19:33:48.794Z,26.30
2022-08-25T19:36:17.444Z,26.30
2022-08-25T19:38:45.374Z,26.20
2022-08-25T19:41:15.007Z,26.20
2022-08-25T19:43:56.513Z,26.20
2022-08-25T19:46:32.481Z,26.10
2022-08-25T19:49:07.365Z,26.10
2022-08-25T19:51:36.725Z,26.00
2022-08-25T19:54:05.200Z,26.00
2022-08-25T19:56:35.056Z,25.90
2022-08-25T19:59:04.957Z,25.90
2022-08-25T20:01:33.022Z,25.90
2022-08-25T20:04:03.401Z,25.80
2022-08-25T20:06:32.074Z,25.80
2022-08-25T20:09:00.421Z,25.80
2022-08-25T20:11:28.683Z,25.80
2022-08-25T20:13:59.292Z,25.70
2022-08-25T20:16:30.905Z,25.70
2022-08-25T20:19:00.211Z,25.70
2022-08-25T20:21:30.823Z,25.60
2022-08-25T20:24:16.135Z,25.60
2022-08-25T20:26:44.054Z,25.50
2022-08-25T20:29:12.832Z,25.60
2022-08-25T20:31:41.103Z,25.60
2022-08-25T20:34:11.468Z,25.60
2022-08-25T20:36:49.691Z,25.60
2022-08-25T20:39:18.030Z,25.60
2022-08-25T20:41:48.437Z,25.60
2022-08-25T20:44:16.554Z,25.50
2022-08-25T20:46:45.285Z,25.50
2022-08-25T20:49:13.609Z,25.50
2022-08-25T20:51:42.974Z,25.40
2022-08-25T20:54:12.707Z,25.40
2022-08-25T20:56:40.463Z,25.40
2022-08-25T20:59:10.296Z,25.40
2022-08-25T21:01:39.754Z,25.40
2022-08-25T21:04:08.308Z,25.30
2022-08-25T21:06:37.535Z,25.30
2022-08-25T21:09:12.493Z,25.30
2022-08-25T21:11:44.028Z,25.30
2022-08-25T21:14:13.305Z,25.20
2022-08-25T21:16:41.482Z,25.20
2022-08-25T21:19:11.077Z,25.10
2022-08-25T21:21:40.098Z,25.10
2022-08-25T21:24:10.006Z,25.00
2022-08-25T21:26:48.923Z,25.00
2022-08-25T21:29:17.762Z,24.90
2022-08-25T21:31:46.395Z,24.90
2022-08-25T21:34:17.068Z,24.90
2022-08-25T21:36:47.192Z,24.80
2022-08-25T21:39:16.246Z,24.80
2022-08-25T21:41:45.157Z,24.80
2022-08-25T21:44:13.763Z,24.70
2022-08-25T21:46:42.129Z,24.80
2022-08-25T21:49:21.810Z,24.80
2022-08-25T21:51:59.381Z,24.70
2022-08-25T21:54:30.081Z,24.80
2022-08-25T21:56:59.676Z,24.80
2022-08-25T21:59:28.894Z,24.80
2022-08-25T22:01:57.490Z,24.80
2022-08-25T22:04:25.766Z,24.70
2022-08-25T22:06:54.291Z,24.70
2022-08-25T22:09:22.665Z,24.70
2022-08-25T22:11:53.225Z,24.60
2022-08-25T22:14:23.344Z,24.40
2022-08-25T22:16:51.896Z,24.30
2022-08-25T22:19:19.818Z,24.40
2022-08-25T22:21:47.506Z,24.40
2022-08-25T22:24:16.112Z,24.30
2022-08-25T22:26:47.362Z,24.30
2022-08-25T22:29:24.867Z,24.30
2022-08-25T22:31:53.841Z,24.20
2022-08-25T22:34:30.737Z,24.30
2022-08-25T22:37:00.178Z,24.40
2022-08-25T22:39:28.475Z,24.50
2022-08-25T22:41:56.334Z,24.50
2022-08-25T22:44:25.517Z,24.40
2022-08-25T22:46:53.369Z,24.40
2022-08-25T22:49:21.708Z,24.30
2022-08-25T22:51:49.920Z,24.30
2022-08-25T22:54:18.693Z,24.20
2022-08-25T22:56:46.427Z,24.20
2022-08-25T22:59:15.426Z,24.00
2022-08-25T23:01:45.358Z,24.00
2022-08-25T23:04:13.604Z,24.00
2022-08-25T23:06:41.403Z,24.00
2022-08-25T23:09:10.787Z,24.00
2022-08-25T23:11:38.887Z,24.00
2022-08-25T23:14:09.447Z,24.10
2022-08-25T23:16:37.488Z,23.90
2022-08-25T23:19:06.611Z,23.90
2022-08-25T23:21:52.849Z,23.80
2022-08-25T23:24:29.151Z,23.80
2022-08-25T23:26:58.068Z,23.70
2022-08-25T23:29:25.871Z,23.80
2022-08-25T23:31:53.823Z,23.60
2022-08-25T23:34:22.967Z,23.60
2022-08-25T23:36:50.752Z,23.60
2022-08-25T23:39:18.625Z,23.50
2022-08-25T23:41:50.464Z,23.50
2022-08-25T23:44:18.757Z,23.60
2022-08-25T23:46:47.359Z,23.50
2022-08-25T23:49:18.150Z,23.50
2022-08-25T23:51:47.847Z,23.50
2022-08-25T23:54:16.918Z,23.50
2022-08-25T23:56:52.189Z,23.50
2022-08-25T23:59:24.268Z,23.50
